Time;durP1;ratioP1;P1;durP2;ratioP2;P2;SDS_P1;SDS_P2;PMS_P1;PMS_P2;Temp;Humidity;BMP_temperature;BMP_pressure;BME280_temperature;BME280_humidity;BME280_pressure;Samples;Min_cycle;Max_cycle;Signal;HPM_P1;HPM_P2
2022/04/23 00:01:09;;;;;;;;;;;21.40;35.50;;;;;;482752;245;1125;-38
2022/04/23 00:03:10;;;;;;;;;;;21.40;35.50;;;;;;483240;245;1144;-38
2022/04/23 00:05:12;;;;;;;;;;;21.50;35.50;;;;;;483266;245;960;-38
2022/04/23 00:07:13;;;;;;;;;;;21.40;35.50;;;;;;483034;245;1094;-38
2022/04/23 00:09:14;;;;;;;;;;;21.40;35.50;;;;;;483220;245;1074;-38
2022/04/23 00:11:15;;;;;;;;;;;21.40;35.60;;;;;;483229;245;1076;-38
2022/04/23 00:13:17;;;;;;;;;;;21.40;35.50;;;;;;482817;245;1392;-38
2022/04/23 00:15:24;;;;;;;;;;;21.40;35.50;;;;;;483219;245;2188;-38
2022/04/23 00:17:19;;;;;;;;;;;21.40;35.50;;;;;;482433;246;2239;-38
2022/04/23 00:19:21;;;;;;;;;;;21.40;35.60;;;;;;483142;245;1213;-38
2022/04/23 00:21:22;;;;;;;;;;;21.40;35.60;;;;;;483261;245;1057;-38
2022/04/23 00:23:24;;;;;;;;;;;21.40;35.50;;;;;;483214;245;1053;-38
2022/04/23 00:25:25;;;;;;;;;;;21.40;35.50;;;;;;482981;245;2218;-39
2022/04/23 00:27:26;;;;;;;;;;;21.40;35.60;;;;;;482770;245;1198;-39
2022/04/23 00:29:28;;;;;;;;;;;21.50;35.50;;;;;;483241;245;1105;-38
2022/04/23 00:31:29;;;;;;;;;;;21.50;35.50;;;;;;482718;246;2303;-38
2022/04/23 00:33:30;;;;;;;;;;;21.40;35.50;;;;;;483215;245;1064;-38
2022/04/23 00:35:32;;;;;;;;;;;21.40;35.50;;;;;;482753;245;2125;-38
2022/04/23 00:37:33;;;;;;;;;;;21.40;35.60;;;;;;483236;245;1104;-38
2022/04/23 00:39:34;;;;;;;;;;;21.40;35.60;;;;;;482820;245;1075;-38
2022/04/23 00:41:46;;;;;;;;;;;21.40;35.70;;;;;;483200;245;1140;-38
2022/04/23 00:43:47;;;;;;;;;;;21.40;35.60;;;;;;482850;245;1236;-38
2022/04/23 00:45:48;;;;;;;;;;;21.40;35.50;;;;;;483237;245;1325;-38
2022/04/23 00:47:49;;;;;;;;;;;21.50;35.50;;;;;;482733;245;1159;-38
2022/04/23 00:49:51;;;;;;;;;;;21.40;35.50;;;;;;482827;245;1053;-38
2022/04/23 00:51:52;;;;;;;;;;;21.40;35.60;;;;;;482926;245;1066;-38
2022/04/23 00:53:53;;;;;;;;;;;21.40;35.60;;;;;;482737;245;1092;-38
2022/04/23 00:55:55;;;;;;;;;;;21.40;35.60;;;;;;483148;245;2124;-38
2022/04/23 00:57:56;;;;;;;;;;;21.50;35.60;;;;;;482894;245;1150;-38
2022/04/23 00:59:57;;;;;;;;;;;21.50;35.60;;;;;;483249;245;1056;-38
2022/04/23 01:02:02;;;;;;;;;;;21.40;35.40;;;;;;482708;245;1130;-39
2022/04/23 01:04:02;;;;;;;;;;;21.40;35.50;;;;;;482873;246;2159;-38
2022/04/23 01:06:02;;;;;;;;;;;21.40;35.50;;;;;;482708;246;1568;-38
2022/04/23 01:08:04;;;;;;;;;;;21.40;35.50;;;;;;483116;245;1199;-38
2022/04/23 01:10:04;;;;;;;;;;;21.40;35.50;;;;;;482787;245;2350;-38
2022/04/23 01:12:06;;;;;;;;;;;21.40;35.50;;;;;;482766;245;1460;-38
2022/04/23 01:14:07;;;;;;;;;;;21.50;35.50;;;;;;482744;245;1227;-38
2022/04/23 01:16:08;;;;;;;;;;;21.50;35.50;;;;;;483219;245;2157;-39
2022/04/23 01:18:09;;;;;;;;;;;21.50;35.50;;;;;;482822;245;1069;-39
2022/04/23 01:20:11;;;;;;;;;;;21.40;35.50;;;;;;482830;245;1076;-38
2022/04/23 01:22:12;;;;;;;;;;;21.40;35.50;;;;;;483220;245;1317;-38
2022/04/23 01:24:14;;;;;;;;;;;21.40;35.60;;;;;;482828;245;1045;-38
2022/04/23 01:26:15;;;;;;;;;;;21.40;35.60;;;;;;483208;245;1138;-38
2022/04/23 01:28:16;;;;;;;;;;;21.40;35.50;;;;;;483019;245;1130;-38
2022/04/23 01:30:18;;;;;;;;;;;21.40;35.50;;;;;;483216;245;1089;-38
2022/04/23 01:32:19;;;;;;;;;;;21.40;35.50;;;;;;483197;245;1169;-38
2022/04/23 01:34:20;;;;;;;;;;;21.40;35.60;;;;;;482801;245;1084;-38
2022/04/23 01:36:22;;;;;;;;;;;21.40;35.60;;;;;;483014;245;2121;-39
2022/04/23 01:38:23;;;;;;;;;;;21.40;35.60;;;;;;482770;245;1037;-38
2022/04/23 01:40:24;;;;;;;;;;;21.50;35.50;;;;;;482797;245;1094;-38
2022/04/23 01:42:26;;;;;;;;;;;21.50;35.50;;;;;;483234;245;1211;-38
2022/04/23 01:44:27;;;;;;;;;;;21.40;35.50;;;;;;482845;245;1198;-38
2022/04/23 01:46:28;;;;;;;;;;;21.50;35.60;;;;;;483130;245;1152;-38
2022/04/23 01:48:30;;;;;;;;;;;21.50;35.50;;;;;;482801;245;1054;-38
2022/04/23 01:50:31;;;;;;;;;;;21.50;35.60;;;;;;483224;245;1042;-38
2022/04/23 01:52:32;;;;;;;;;;;21.40;35.60;;;;;;483136;245;1079;-38
2022/04/23 01:54:34;;;;;;;;;;;21.40;35.60;;;;;;482796;245;1229;-38
2022/04/23 01:56:35;;;;;;;;;;;21.40;35.60;;;;;;482722;245;2189;-38
2022/04/23 01:58:36;;;;;;;;;;;21.40;35.60;;;;;;482809;245;1145;-38
2022/04/23 02:00:38;;;;;;;;;;;21.50;35.60;;;;;;483233;245;1081;-38
2022/04/23 02:02:39;;;;;;;;;;;21.50;35.60;;;;;;483230;245;1322;-38
2022/04/23 02:04:40;;;;;;;;;;;21.50;35.60;;;;;;483238;245;1054;-38
2022/04/23 02:06:41;;;;;;;;;;;21.50;35.70;;;;;;483196;245;1169;-38
2022/04/23 02:08:43;;;;;;;;;;;21.40;35.60;;;;;;483054;245;1086;-38
2022/04/23 02:10:45;;;;;;;;;;;21.40;35.60;;;;;;483180;245;1058;-38
2022/04/23 02:12:46;;;;;;;;;;;21.40;35.60;;;;;;482744;246;2286;-38
2022/04/23 02:14:48;;;;;;;;;;;21.40;35.60;;;;;;482874;245;1237;-38
2022/04/23 02:16:48;;;;;;;;;;;21.50;35.60;;;;;;482722;245;2209;-38
2022/04/23 02:18:50;;;;;;;;;;;21.40;35.60;;;;;;483248;245;1166;-38
2022/04/23 02:20:51;;;;;;;;;;;21.40;35.60;;;;;;483100;245;1075;-38
2022/04/23 02:22:52;;;;;;;;;;;21.40;35.60;;;;;;482821;245;1065;-38
2022/04/23 02:24:54;;;;;;;;;;;21.50;35.60;;;;;;483199;245;1285;-38
2022/04/23 02:26:55;;;;;;;;;;;21.50;35.60;;;;;;483167;245;1219;-38
2022/04/23 02:28:56;;;;;;;;;;;21.50;35.60;;;;;;483067;245;1199;-39
2022/04/23 02:30:58;;;;;;;;;;;21.50;35.70;;;;;;482864;245;1176;-39
2022/04/23 02:32:59;;;;;;;;;;;21.40;35.50;;;;;;482784;245;1461;-39
2022/04/23 02:35:00;;;;;;;;;;;21.50;35.60;;;;;;483204;245;1057;-39
2022/04/23 02:37:02;;;;;;;;;;;21.50;35.60;;;;;;483170;245;2181;-39
2022/04/23 02:39:03;;;;;;;;;;;21.40;35.60;;;;;;483259;245;1056;-39
2022/04/23 02:41:04;;;;;;;;;;;21.40;35.70;;;;;;483200;245;1152;-39
2022/04/23 02:43:07;;;;;;;;;;;21.40;35.60;;;;;;482928;245;1060;-39
2022/04/23 02:45:07;;;;;;;;;;;21.40;35.70;;;;;;482816;245;2463;-39
2022/04/23 02:47:09;;;;;;;;;;;21.50;35.70;;;;;;482717;245;1266;-39
2022/04/23 02:49:10;;;;;;;;;;;21.40;35.60;;;;;;483072;245;1119;-38
2022/04/23 02:51:15;;;;;;;;;;;21.50;35.60;;;;;;482778;245;1115;-38
2022/04/23 02:53:13;;;;;;;;;;;21.40;35.60;;;;;;482688;246;2250;-38
2022/04/23 02:55:15;;;;;;;;;;;21.40;35.70;;;;;;482943;245;1012;-38
2022/04/23 02:57:16;;;;;;;;;;;21.40;35.70;;;;;;483007;245;2125;-38
2022/04/23 02:59:17;;;;;;;;;;;21.40;35.60;;;;;;483104;245;1290;-38
2022/04/23 03:01:22;;;;;;;;;;;21.40;35.70;;;;;;483215;245;1342;-38
2022/04/23 03:03:20;;;;;;;;;;;21.40;35.70;;;;;;482861;246;2421;-38
2022/04/23 03:05:21;;;;;;;;;;;21.40;35.70;;;;;;483171;245;1133;-38
2022/04/23 03:07:23;;;;;;;;;;;21.40;35.70;;;;;;483002;245;1074;-38
2022/04/23 03:09:24;;;;;;;;;;;21.40;35.70;;;;;;483113;245;1038;-39
2022/04/23 03:11:25;;;;;;;;;;;21.50;35.70;;;;;;482981;245;1046;-38
2022/04/23 03:13:27;;;;;;;;;;;21.50;35.60;;;;;;483071;245;1063;-39
2022/04/23 03:15:28;;;;;;;;;;;21.50;35.60;;;;;;482853;245;1185;-39
2022/04/23 03:17:31;;;;;;;;;;;21.50;35.70;;;;;;483248;245;2196;-38
2022/04/23 03:19:31;;;;;;;;;;;21.50;35.70;;;;;;482765;245;2361;-38
2022/04/23 03:21:32;;;;;;;;;;;21.40;35.60;;;;;;482884;245;1023;-38
2022/04/23 03:23:33;;;;;;;;;;;21.50;35.60;;;;;;483246;245;1127;-38
2022/04/23 03:25:35;;;;;;;;;;;21.50;35.50;;;;;;483244;245;1092;-38
2022/04/23 03:27:36;;;;;;;;;;;21.50;35.50;;;;;;483236;245;1090;-38
2022/04/23 03:29:38;;;;;;;;;;;21.50;35.50;;;;;;483058;245;1095;-38
2022/04/23 03:31:39;;;;;;;;;;;21.50;35.60;;;;;;482960;245;1284;-38
2022/04/23 03:33:40;;;;;;;;;;;21.50;35.60;;;;;;482818;245;1191;-38
2022/04/23 03:35:42;;;;;;;;;;;21.50;35.60;;;;;;483222;245;1080;-38
2022/04/23 03:37:43;;;;;;;;;;;21.50;35.60;;;;;;483219;245;2153;-38
2022/04/23 03:39:44;;;;;;;;;;;21.50;35.60;;;;;;483045;245;1044;-38
2022/04/23 03:41:45;;;;;;;;;;;21.50;35.60;;;;;;483210;245;1152;-38
2022/04/23 03:43:47;;;;;;;;;;;21.50;35.60;;;;;;482825;245;1084;-38
2022/04/23 03:45:48;;;;;;;;;;;21.50;35.60;;;;;;482801;245;1511;-39
2022/04/23 03:47:49;;;;;;;;;;;21.50;35.60;;;;;;483204;245;1268;-38
2022/04/23 03:49:51;;;;;;;;;;;21.40;35.60;;;;;;482987;245;1083;-38
2022/04/23 03:51:52;;;;;;;;;;;21.40;35.60;;;;;;483185;245;1107;-38
2022/04/23 03:53:53;;;;;;;;;;;21.50;35.60;;;;;;483266;245;1018;-38
2022/04/23 03:55:55;;;;;;;;;;;21.50;35.60;;;;;;482778;245;2122;-39
2022/04/23 03:57:56;;;;;;;;;;;21.50;35.60;;;;;;483090;245;1095;-38
2022/04/23 03:59:57;;;;;;;;;;;21.50;35.60;;;;;;482846;245;1138;-38
2022/04/23 04:02:04;;;;;;;;;;;21.50;35.60;;;;;;482823;245;1197;-38
2022/04/23 04:04:01;;;;;;;;;;;21.50;35.60;;;;;;483053;246;1894;-38
2022/04/23 04:06:03;;;;;;;;;;;21.50;35.60;;;;;;482940;245;1228;-38
2022/04/23 04:08:04;;;;;;;;;;;21.50;35.60;;;;;;482821;245;1243;-39
2022/04/23 04:10:05;;;;;;;;;;;21.50;35.60;;;;;;482727;245;1107;-38
2022/04/23 04:12:08;;;;;;;;;;;21.50;35.50;;;;;;482734;245;1277;-39
2022/04/23 04:14:08;;;;;;;;;;;21.60;35.60;;;;;;483173;246;1941;-39
2022/04/23 04:16:09;;;;;;;;;;;21.50;35.60;;;;;;482791;245;2185;-39
2022/04/23 04:18:10;;;;;;;;;;;21.50;35.60;;;;;;482865;245;1224;-39
2022/04/23 04:20:12;;;;;;;;;;;21.50;35.50;;;;;;483292;245;1039;-39
2022/04/23 04:22:13;;;;;;;;;;;21.50;35.50;;;;;;482747;245;1337;-39
2022/04/23 04:24:14;;;;;;;;;;;21.50;35.60;;;;;;483286;245;1085;-39
2022/04/23 04:26:16;;;;;;;;;;;21.50;35.50;;;;;;483266;245;1044;-39
2022/04/23 04:28:17;;;;;;;;;;;21.50;35.60;;;;;;482815;245;1218;-39
2022/04/23 04:30:18;;;;;;;;;;;21.50;35.60;;;;;;483026;245;1295;-38
2022/04/23 04:32:20;;;;;;;;;;;21.50;35.60;;;;;;483021;245;1186;-38
2022/04/23 04:34:21;;;;;;;;;;;21.50;35.60;;;;;;483265;245;1048;-38
2022/04/23 04:36:22;;;;;;;;;;;21.50;35.60;;;;;;483234;245;2252;-38
2022/04/23 04:38:23;;;;;;;;;;;21.50;35.60;;;;;;483256;245;1051;-38
2022/04/23 04:40:25;;;;;;;;;;;21.60;35.50;;;;;;483259;245;1060;-38
2022/04/23 04:42:27;;;;;;;;;;;21.50;35.60;;;;;;482775;245;1034;-38
2022/04/23 04:44:27;;;;;;;;;;;21.50;35.60;;;;;;483271;245;1082;-38
2022/04/23 04:46:29;;;;;;;;;;;21.50;35.60;;;;;;482813;245;1202;-38
2022/04/23 04:48:30;;;;;;;;;;;21.50;35.60;;;;;;482957;245;1064;-38
2022/04/23 04:50:31;;;;;;;;;;;21.50;35.60;;;;;;482756;245;1070;-38
2022/04/23 04:52:33;;;;;;;;;;;21.50;35.70;;;;;;483186;245;1165;-38
2022/04/23 04:54:34;;;;;;;;;;;21.50;35.60;;;;;;483255;245;1065;-38
2022/04/23 04:56:35;;;;;;;;;;;21.50;35.60;;;;;;483056;245;2200;-38
2022/04/23 04:58:37;;;;;;;;;;;21.50;35.60;;;;;;483236;245;1292;-38
2022/04/23 05:00:38;;;;;;;;;;;21.50;35.60;;;;;;483042;245;1209;-38
2022/04/23 05:02:39;;;;;;;;;;;21.50;35.70;;;;;;483212;245;1069;-38
2022/04/23 05:04:41;;;;;;;;;;;21.50;35.70;;;;;;482990;245;1121;-38
2022/04/23 05:06:42;;;;;;;;;;;21.50;35.60;;;;;;483067;245;1101;-39
2022/04/23 05:08:43;;;;;;;;;;;21.50;35.50;;;;;;483268;245;1060;-38
2022/04/23 05:10:45;;;;;;;;;;;21.50;35.60;;;;;;483260;245;1090;-38
2022/04/23 05:12:46;;;;;;;;;;;21.60;35.60;;;;;;482821;245;1043;-38
2022/04/23 05:14:47;;;;;;;;;;;21.60;35.50;;;;;;483257;245;1042;-38
2022/04/23 05:16:49;;;;;;;;;;;21.50;35.50;;;;;;482783;245;2134;-39
2022/04/23 05:18:50;;;;;;;;;;;21.60;35.60;;;;;;483297;245;1077;-39
2022/04/23 05:20:51;;;;;;;;;;;21.50;35.60;;;;;;483261;245;1130;-38
2022/04/23 05:22:53;;;;;;;;;;;21.50;35.60;;;;;;483033;245;1046;-38
2022/04/23 05:24:54;;;;;;;;;;;21.50;35.60;;;;;;482832;245;1259;-38
2022/04/23 05:26:55;;;;;;;;;;;21.50;35.60;;;;;;483243;245;1032;-38
2022/04/23 05:28:57;;;;;;;;;;;21.60;35.70;;;;;;483258;245;1051;-39
2022/04/23 05:30:58;;;;;;;;;;;21.50;35.70;;;;;;482982;245;1152;-39
2022/04/23 05:33:00;;;;;;;;;;;21.50;35.70;;;;;;483248;245;1057;-38
2022/04/23 05:35:01;;;;;;;;;;;21.50;35.70;;;;;;483040;245;1029;-38
2022/04/23 05:37:02;;;;;;;;;;;21.50;35.80;;;;;;483188;245;2128;-39
2022/04/23 05:39:04;;;;;;;;;;;21.50;35.70;;;;;;482793;245;1092;-39
2022/04/23 05:41:05;;;;;;;;;;;21.50;35.70;;;;;;483215;245;1132;-39
2022/04/23 05:43:06;;;;;;;;;;;21.50;35.70;;;;;;483265;245;1120;-39
2022/04/23 05:45:08;;;;;;;;;;;21.50;35.70;;;;;;483287;245;1087;-38
2022/04/23 05:47:09;;;;;;;;;;;21.50;35.70;;;;;;482787;245;1213;-38
2022/04/23 05:49:10;;;;;;;;;;;21.50;35.70;;;;;;482945;245;1053;-38
2022/04/23 05:51:12;;;;;;;;;;;21.50;35.80;;;;;;483246;245;1061;-38
2022/04/23 05:53:13;;;;;;;;;;;21.50;35.70;;;;;;483159;245;1334;-38
2022/04/23 05:55:15;;;;;;;;;;;21.50;35.60;;;;;;483236;245;1033;-38
2022/04/23 05:57:16;;;;;;;;;;;21.50;35.70;;;;;;483043;245;2133;-38
2022/04/23 05:59:18;;;;;;;;;;;21.50;35.70;;;;;;483038;245;1083;-38
2022/04/23 06:01:19;;;;;;;;;;;21.50;35.70;;;;;;482910;245;1198;-38
2022/04/23 06:03:20;;;;;;;;;;;21.50;35.70;;;;;;483016;245;1532;-39
2022/04/23 06:05:22;;;;;;;;;;;21.50;35.70;;;;;;483209;245;1187;-38
2022/04/23 06:07:23;;;;;;;;;;;21.50;35.70;;;;;;482900;245;1074;-38
2022/04/23 06:09:25;;;;;;;;;;;21.50;35.70;;;;;;482831;245;1092;-39
2022/04/23 06:11:26;;;;;;;;;;;21.50;35.70;;;;;;482738;245;1082;-38
2022/04/23 06:13:27;;;;;;;;;;;21.50;35.70;;;;;;482874;245;2008;-38
2022/04/23 06:15:28;;;;;;;;;;;21.50;35.70;;;;;;482782;245;1277;-38
2022/04/23 06:17:30;;;;;;;;;;;21.50;35.70;;;;;;482716;245;2201;-38
2022/04/23 06:19:31;;;;;;;;;;;21.50;35.60;;;;;;482818;245;1054;-38
2022/04/23 06:21:32;;;;;;;;;;;21.50;35.70;;;;;;483215;245;1226;-38
2022/04/23 06:23:34;;;;;;;;;;;21.50;35.70;;;;;;482809;245;1043;-39
2022/04/23 06:25:35;;;;;;;;;;;21.50;35.70;;;;;;482806;245;1072;-38
2022/04/23 06:27:36;;;;;;;;;;;21.50;35.60;;;;;;483224;245;1205;-38
2022/04/23 06:29:38;;;;;;;;;;;21.50;35.60;;;;;;482820;245;1073;-38
2022/04/23 06:31:39;;;;;;;;;;;21.50;35.70;;;;;;482771;245;1231;-38
2022/04/23 06:33:42;;;;;;;;;;;21.60;35.60;;;;;;482825;245;1026;-38
2022/04/23 06:35:42;;;;;;;;;;;21.50;35.70;;;;;;483218;245;2384;-39
2022/04/23 06:37:44;;;;;;;;;;;21.50;35.70;;;;;;483231;245;2165;-38
2022/04/23 06:39:44;;;;;;;;;;;21.50;35.70;;;;;;482777;245;1829;-38
2022/04/23 06:41:46;;;;;;;;;;;21.50;35.70;;;;;;483174;245;1065;-38
2022/04/23 06:43:47;;;;;;;;;;;21.50;35.70;;;;;;482896;245;1288;-38
2022/04/23 06:45:49;;;;;;;;;;;21.50;35.70;;;;;;482827;245;1105;-38
2022/04/23 06:47:50;;;;;;;;;;;21.50;35.70;;;;;;482848;245;1188;-38
2022/04/23 06:49:51;;;;;;;;;;;21.50;35.70;;;;;;483254;245;1044;-38
2022/04/23 06:51:53;;;;;;;;;;;21.50;35.90;;;;;;482726;245;1206;-38
2022/04/23 06:53:54;;;;;;;;;;;21.50;35.80;;;;;;482803;245;1087;-38
2022/04/23 06:55:55;;;;;;;;;;;21.50;35.80;;;;;;483180;245;1128;-38
2022/04/23 06:57:57;;;;;;;;;;;21.50;35.80;;;;;;483170;245;2118;-38
2022/04/23 06:59:58;;;;;;;;;;;21.50;35.80;;;;;;483233;245;1128;-38
2022/04/23 07:02:02;;;;;;;;;;;21.50;35.80;;;;;;482777;245;1153;-38
2022/04/23 07:04:01;;;;;;;;;;;21.40;35.80;;;;;;482689;246;1459;-38
2022/04/23 07:06:02;;;;;;;;;;;21.50;35.80;;;;;;483233;245;1032;-38
2022/04/23 07:08:03;;;;;;;;;;;21.50;35.70;;;;;;483040;245;1109;-38
2022/04/23 07:10:05;;;;;;;;;;;21.50;35.70;;;;;;482801;245;1048;-38
2022/04/23 07:12:06;;;;;;;;;;;21.50;35.80;;;;;;483205;245;1059;-38
2022/04/23 07:14:07;;;;;;;;;;;21.50;35.70;;;;;;483273;245;1129;-38
2022/04/23 07:16:11;;;;;;;;;;;21.50;35.70;;;;;;483213;245;1129;-38
2022/04/23 07:18:11;;;;;;;;;;;21.60;35.70;;;;;;482777;246;2142;-38
2022/04/23 07:20:12;;;;;;;;;;;21.60;35.70;;;;;;482843;245;1079;-38
2022/04/23 07:22:13;;;;;;;;;;;21.50;35.70;;;;;;482781;245;1189;-38
2022/04/23 07:24:16;;;;;;;;;;;21.50;35.70;;;;;;483275;245;1205;-38
2022/04/23 07:26:16;;;;;;;;;;;21.60;35.70;;;;;;482748;245;2309;-38
2022/04/23 07:28:18;;;;;;;;;;;21.50;35.70;;;;;;483185;245;1213;-38
2022/04/23 07:30:19;;;;;;;;;;;21.50;35.80;;;;;;482733;246;2003;-38
2022/04/23 07:32:21;;;;;;;;;;;21.50;35.80;;;;;;482589;245;1221;-38
2022/04/23 07:39:00;;;;;;;;;;;21.50;35.80;;;;;;482895;246;2113;-38
2022/04/23 07:41:02;;;;;;;;;;;21.50;35.80;;;;;;482773;245;1627;-38
2022/04/23 07:43:03;;;;;;;;;;;21.50;35.80;;;;;;483177;245;986;-38
2022/04/23 07:45:04;;;;;;;;;;;21.50;35.80;;;;;;482923;245;987;-38
2022/04/23 07:47:06;;;;;;;;;;;21.50;35.80;;;;;;482948;243;1282;-38
2022/04/23 07:49:07;;;;;;;;;;;21.50;35.80;;;;;;483155;245;1347;-38
2022/04/23 07:51:09;;;;;;;;;;;21.50;35.70;;;;;;482970;245;1133;-38
2022/04/23 07:53:11;;;;;;;;;;;21.50;35.70;;;;;;483072;245;1361;-38
2022/04/23 07:55:11;;;;;;;;;;;21.50;35.80;;;;;;482683;245;2239;-38
2022/04/23 07:57:13;;;;;;;;;;;21.50;35.70;;;;;;483116;245;1203;-38
2022/04/23 07:59:14;;;;;;;;;;;21.50;35.70;;;;;;483133;245;2121;-38
2022/04/23 08:01:16;;;;;;;;;;;21.50;35.80;;;;;;483170;245;1065;-38
2022/04/23 08:03:17;;;;;;;;;;;21.50;35.80;;;;;;482904;245;1266;-38
2022/04/23 08:05:18;;;;;;;;;;;21.50;35.80;;;;;;483124;245;1059;-38
2022/04/23 08:07:20;;;;;;;;;;;21.40;35.80;;;;;;482863;245;1252;-39
2022/04/23 08:09:21;;;;;;;;;;;21.50;35.80;;;;;;482780;245;1136;-39
2022/04/23 08:11:23;;;;;;;;;;;21.50;35.80;;;;;;482891;245;1077;-39
2022/04/23 08:13:24;;;;;;;;;;;21.50;35.80;;;;;;483190;245;1195;-38
2022/04/23 08:15:26;;;;;;;;;;;21.50;35.80;;;;;;482834;245;1083;-38
2022/04/23 08:17:27;;;;;;;;;;;21.50;35.80;;;;;;482760;245;2257;-38
2022/04/23 08:19:29;;;;;;;;;;;21.50;35.80;;;;;;483269;245;1085;-38
2022/04/23 08:21:30;;;;;;;;;;;21.50;35.80;;;;;;483140;245;1867;-38
2022/04/23 08:23:33;;;;;;;;;;;21.50;35.80;;;;;;482753;245;1084;-38
2022/04/23 08:25:33;;;;;;;;;;;21.50;35.80;;;;;;483065;245;2035;-38
2022/04/23 08:27:35;;;;;;;;;;;21.50;35.80;;;;;;482874;245;1229;-39
2022/04/23 08:31:55;;;;;;;;;;;21.50;35.80;;;;;;483119;246;1140;-38
2022/04/23 08:34:00;;;;;;;;;;;21.60;35.80;;;;;;482896;245;1145;-38
2022/04/23 08:36:01;;;;;;;;;;;21.50;35.80;;;;;;483122;245;1049;-38
2022/04/23 08:38:02;;;;;;;;;;;21.60;35.80;;;;;;482760;245;2204;-39
2022/04/23 08:40:04;;;;;;;;;;;21.60;35.80;;;;;;482826;245;1053;-39
2022/04/23 08:42:05;;;;;;;;;;;21.50;35.80;;;;;;482959;245;1356;-39
2022/04/23 08:44:06;;;;;;;;;;;21.50;35.90;;;;;;483102;245;1066;-39
2022/04/23 08:46:07;;;;;;;;;;;21.50;35.90;;;;;;483207;245;1088;-39
2022/04/23 08:48:09;;;;;;;;;;;21.50;35.90;;;;;;482869;245;1225;-38
2022/04/23 08:50:10;;;;;;;;;;;21.50;35.80;;;;;;482863;245;1243;-38
2022/04/23 08:52:11;;;;;;;;;;;21.50;35.80;;;;;;483297;245;1209;-38
2022/04/23 08:54:13;;;;;;;;;;;21.50;35.80;;;;;;482842;245;1110;-38
2022/04/23 08:56:14;;;;;;;;;;;21.60;35.80;;;;;;483113;245;1019;-38
2022/04/23 08:58:17;;;;;;;;;;;21.50;35.80;;;;;;482809;245;2114;-38
2022/04/23 09:00:17;;;;;;;;;;;21.60;35.80;;;;;;482736;245;2050;-38
2022/04/23 09:02:18;;;;;;;;;;;21.50;35.80;;;;;;482881;245;1185;-38
2022/04/23 09:04:20;;;;;;;;;;;21.50;35.80;;;;;;482763;245;1569;-39
2022/04/23 09:06:21;;;;;;;;;;;21.50;35.80;;;;;;483087;245;1117;-38
2022/04/23 09:08:24;;;;;;;;;;;21.50;35.80;;;;;;482983;245;1034;-38
2022/04/23 09:10:23;;;;;;;;;;;21.50;35.80;;;;;;482721;246;2079;-38
2022/04/23 09:12:25;;;;;;;;;;;21.50;35.90;;;;;;482770;245;1214;-38
2022/04/23 09:14:26;;;;;;;;;;;21.50;35.90;;;;;;483252;245;1152;-38
2022/04/23 09:25:47;;;;;;;;;;;21.50;35.90;;;;;;482570;246;1138;-38
2022/04/23 09:27:48;;;;;;;;;;;21.50;35.90;;;;;;483180;245;1100;-38
2022/04/23 09:29:50;;;;;;;;;;;21.50;35.90;;;;;;482797;245;1230;-38
2022/04/23 09:31:51;;;;;;;;;;;21.50;35.90;;;;;;483007;245;1035;-38
2022/04/23 09:33:54;;;;;;;;;;;21.50;35.90;;;;;;482811;245;1079;-38
2022/04/23 09:35:54;;;;;;;;;;;21.50;35.90;;;;;;483135;247;1578;-39
2022/04/23 09:38:13;;;;;;;;;;;21.50;36.00;;;;;;483173;245;2126;-39
2022/04/23 09:40:15;;;;;;;;;;;21.50;36.00;;;;;;483232;245;1037;-39
2022/04/23 09:42:17;;;;;;;;;;;21.50;35.90;;;;;;483164;245;1151;-38
2022/04/23 09:44:17;;;;;;;;;;;21.50;35.90;;;;;;483008;245;1485;-38
2022/04/23 09:46:19;;;;;;;;;;;21.50;35.90;;;;;;483048;245;1096;-38
2022/04/23 09:48:20;;;;;;;;;;;21.50;35.90;;;;;;482818;245;2180;-38
2022/04/23 09:50:21;;;;;;;;;;;21.50;35.90;;;;;;482790;245;1342;-38
2022/04/23 09:52:23;;;;;;;;;;;21.50;36.00;;;;;;482765;245;1027;-38
2022/04/23 09:54:24;;;;;;;;;;;21.50;35.90;;;;;;482820;245;1114;-38
2022/04/23 09:56:25;;;;;;;;;;;21.50;35.90;;;;;;483204;245;1061;-38
2022/04/23 09:58:29;;;;;;;;;;;21.50;35.90;;;;;;483039;245;2196;-38
2022/04/23 10:00:29;;;;;;;;;;;21.50;35.90;;;;;;482656;245;2040;-38
2022/04/23 10:02:30;;;;;;;;;;;21.60;35.90;;;;;;482709;245;1188;-38
2022/04/23 10:04:31;;;;;;;;;;;21.60;35.90;;;;;;482904;245;1611;-38
2022/04/23 10:06:35;;;;;;;;;;;21.60;35.90;;;;;;482716;245;1223;-39
2022/04/23 10:08:34;;;;;;;;;;;21.60;35.90;;;;;;482693;246;2209;-39
2022/04/23 10:10:35;;;;;;;;;;;21.50;35.90;;;;;;483187;245;1185;-39
2022/04/23 10:12:36;;;;;;;;;;;21.50;35.90;;;;;;483034;245;1201;-39
2022/04/23 10:14:38;;;;;;;;;;;21.50;35.90;;;;;;482838;245;1096;-39
2022/04/23 10:16:39;;;;;;;;;;;21.50;35.90;;;;;;483147;245;1696;-39
2022/04/23 10:18:42;;;;;;;;;;;21.50;35.90;;;;;;482713;245;2177;-38
2022/04/23 10:20:52;;;;;;;;;;;21.50;35.90;;;;;;483089;246;2236;-38
2022/04/23 10:22:43;;;;;;;;;;;21.50;35.90;;;;;;482325;246;2162;-38
2022/04/23 10:24:44;;;;;;;;;;;21.50;35.90;;;;;;482967;245;1052;-38
2022/04/23 10:26:46;;;;;;;;;;;21.50;36.00;;;;;;483168;245;1117;-38
2022/04/23 10:28:48;;;;;;;;;;;21.50;36.00;;;;;;483245;245;1115;-38
2022/04/23 10:30:49;;;;;;;;;;;21.50;36.00;;;;;;483143;245;1541;-38
2022/04/23 10:32:50;;;;;;;;;;;21.50;36.00;;;;;;482775;245;1058;-38
2022/04/23 10:34:51;;;;;;;;;;;21.50;35.90;;;;;;483019;245;1093;-38
2022/04/23 10:36:52;;;;;;;;;;;21.60;35.90;;;;;;482978;245;1029;-39
2022/04/23 10:38:54;;;;;;;;;;;21.60;35.90;;;;;;483261;245;2191;-38
2022/04/23 10:40:56;;;;;;;;;;;21.60;35.90;;;;;;483089;245;1081;-38
2022/04/23 10:42:57;;;;;;;;;;;21.50;35.90;;;;;;482820;245;1084;-38
2022/04/23 10:44:58;;;;;;;;;;;21.50;36.00;;;;;;483130;245;1094;-38
2022/04/23 10:46:59;;;;;;;;;;;21.50;35.90;;;;;;483178;245;1224;-38
2022/04/23 10:49:01;;;;;;;;;;;21.50;36.00;;;;;;483215;245;1168;-39
2022/04/23 10:51:02;;;;;;;;;;;21.50;35.90;;;;;;483197;245;1233;-38
2022/04/23 10:53:04;;;;;;;;;;;21.50;35.90;;;;;;482987;245;1038;-38
2022/04/23 10:55:05;;;;;;;;;;;21.50;35.90;;;;;;483141;245;1039;-38
2022/04/23 10:57:06;;;;;;;;;;;21.50;35.90;;;;;;482964;245;1288;-38
2022/04/23 10:59:08;;;;;;;;;;;21.60;36.00;;;;;;482830;245;2201;-38
2022/04/23 11:01:09;;;;;;;;;;;21.50;36.00;;;;;;482736;245;1276;-38
2022/04/23 11:03:10;;;;;;;;;;;21.50;36.00;;;;;;482973;245;1100;-38
2022/04/23 11:12:15;;;;;;;;;;;21.50;36.00;;;;;;482757;245;1208;-38
2022/04/23 11:14:17;;;;;;;;;;;21.50;36.10;;;;;;483212;245;1033;-39
2022/04/23 11:16:18;;;;;;;;;;;21.50;36.10;;;;;;483226;245;1183;-38
2022/04/23 11:18:19;;;;;;;;;;;21.60;36.00;;;;;;483190;245;1265;-38
2022/04/23 11:20:21;;;;;;;;;;;21.50;36.00;;;;;;483002;245;2190;-38
2022/04/23 11:22:22;;;;;;;;;;;21.50;36.10;;;;;;483013;245;1247;-38
2022/04/23 11:24:23;;;;;;;;;;;21.50;36.00;;;;;;482735;245;1231;-39
2022/04/23 11:26:26;;;;;;;;;;;21.50;35.90;;;;;;482717;245;1085;-38
2022/04/23 11:28:26;;;;;;;;;;;21.50;36.00;;;;;;482724;245;2347;-39
2022/04/23 11:30:28;;;;;;;;;;;21.60;36.00;;;;;;482775;245;1099;-38
2022/04/23 11:32:29;;;;;;;;;;;21.50;36.00;;;;;;482730;245;1137;-38
2022/04/23 11:34:31;;;;;;;;;;;21.50;36.00;;;;;;483199;245;1149;-38
2022/04/23 11:36:32;;;;;;;;;;;21.50;36.10;;;;;;482988;245;1069;-38
2022/04/23 11:38:33;;;;;;;;;;;21.50;36.10;;;;;;482812;245;2176;-38
2022/04/23 11:40:35;;;;;;;;;;;21.50;36.00;;;;;;482788;245;1124;-39
2022/04/23 11:42:36;;;;;;;;;;;21.50;36.00;;;;;;482952;245;1029;-39
2022/04/23 11:44:46;;;;;;;;;;;21.50;36.00;;;;;;483235;245;1053;-38
2022/04/23 11:46:47;;;;;;;;;;;21.60;36.00;;;;;;483149;245;1364;-38
2022/04/23 11:48:49;;;;;;;;;;;21.50;36.10;;;;;;483052;245;1158;-38
2022/04/23 11:50:51;;;;;;;;;;;21.50;36.10;;;;;;482908;245;1241;-38
2022/04/23 11:52:51;;;;;;;;;;;21.50;36.10;;;;;;482947;245;2442;-38
2022/04/23 11:54:53;;;;;;;;;;;21.50;36.10;;;;;;482806;245;1108;-38
2022/04/23 11:56:54;;;;;;;;;;;21.50;36.10;;;;;;483058;245;2056;-38
2022/04/23 11:58:56;;;;;;;;;;;21.50;36.10;;;;;;482746;245;2125;-38
2022/04/23 12:00:57;;;;;;;;;;;21.50;36.10;;;;;;483023;245;2228;-38
2022/04/23 12:02:58;;;;;;;;;;;21.50;36.10;;;;;;482712;245;1281;-38
2022/04/23 12:04:59;;;;;;;;;;;21.50;36.00;;;;;;483212;245;1266;-38
2022/04/23 12:07:01;;;;;;;;;;;21.50;36.10;;;;;;483136;245;1177;-38
2022/04/23 12:09:02;;;;;;;;;;;21.50;36.00;;;;;;483268;245;1097;-39
2022/04/23 12:11:03;;;;;;;;;;;21.50;36.10;;;;;;483143;245;1188;-38
2022/04/23 12:13:06;;;;;;;;;;;21.50;36.00;;;;;;483197;245;1066;-39
2022/04/23 12:15:07;;;;;;;;;;;21.50;36.00;;;;;;482861;245;1073;-38
2022/04/23 12:17:09;;;;;;;;;;;21.50;36.00;;;;;;482734;245;1345;-38
2022/04/23 12:19:10;;;;;;;;;;;21.50;36.10;;;;;;483276;245;2126;-38
2022/04/23 12:21:12;;;;;;;;;;;21.50;36.10;;;;;;482969;245;1169;-39